sensor_id;sensor_type;location;lat;lon;timestamp;temperature;humidity
19864;DHT22;10094;48.820;9.226;2023-06-04T00:02:56;16.20;99.90
19864;DHT22;10094;48.820;9.226;2023-06-04T00:09:39;15.90;99.90
19864;DHT22;10094;48.820;9.226;2023-06-04T00:16:21;16.10;99.90
19864;DHT22;10094;48.820;9.226;2023-06-04T00:23:04;16.00;99.90
19864;DHT22;10094;48.820;9.226;2023-06-04T00:29:47;15.60;99.90
19864;DHT22;10094;48.820;9.226;2023-06-04T00:36:29;15.50;99.90
19864;DHT22;10094;48.820;9.226;2023-06-04T00:43:12;15.50;99.90
19864;DHT22;10094;48.820;9.226;2023-06-04T00:49:59;15.40;99.90
19864;DHT22;10094;48.820;9.226;2023-06-04T00:56:42;15.10;99.90
19864;DHT22;10094;48.820;9.226;2023-06-04T01:03:25;15.10;99.90
19864;DHT22;10094;48.820;9.226;2023-06-04T01:10:11;15.20;99.90
19864;DHT22;10094;48.820;9.226;2023-06-04T01:23:52;15.10;99.90
19864;DHT22;10094;48.820;9.226;2023-06-04T01:30:43;14.80;99.90
19864;DHT22;10094;48.820;9.226;2023-06-04T01:37:27;14.70;99.90
19864;DHT22;10094;48.820;9.226;2023-06-04T01:44:10;14.60;99.90
19864;DHT22;10094;48.820;9.226;2023-06-04T01:50:52;14.50;99.90
19864;DHT22;10094;48.820;9.226;2023-06-04T01:57:35;14.40;99.90
19864;DHT22;10094;48.820;9.226;2023-06-04T02:04:18;14.40;99.90
19864;DHT22;10094;48.820;9.226;2023-06-04T02:11:01;14.20;99.90
19864;DHT22;10094;48.820;9.226;2023-06-04T02:17:43;14.20;99.90
19864;DHT22;10094;48.820;9.226;2023-06-04T02:24:27;14.20;99.90
19864;DHT22;10094;48.820;9.226;2023-06-04T02:31:10;14.00;99.90
19864;DHT22;10094;48.820;9.226;2023-06-04T02:37:52;14.10;99.90
19864;DHT22;10094;48.820;9.226;2023-06-04T02:44:35;14.00;99.90
19864;DHT22;10094;48.820;9.226;2023-06-04T02:51:17;13.90;99.90
19864;DHT22;10094;48.820;9.226;2023-06-04T02:57:59;13.80;99.90
19864;DHT22;10094;48.820;9.226;2023-06-04T03:04:44;13.70;99.90
19864;DHT22;10094;48.820;9.226;2023-06-04T03:11:27;13.60;99.90
19864;DHT22;10094;48.820;9.226;2023-06-04T03:18:10;13.70;99.90
19864;DHT22;10094;48.820;9.226;2023-06-04T03:24:54;13.70;99.90
19864;DHT22;10094;48.820;9.226;2023-06-04T03:31:36;13.70;99.90
19864;DHT22;10094;48.820;9.226;2023-06-04T03:38:19;13.70;99.90
19864;DHT22;10094;48.820;9.226;2023-06-04T03:45:03;13.80;99.90
19864;DHT22;10094;48.820;9.226;2023-06-04T03:51:46;14.00;99.90
19864;DHT22;10094;48.820;9.226;2023-06-04T03:58:29;14.00;99.90
19864;DHT22;10094;48.820;9.226;2023-06-04T04:05:13;14.00;99.90
19864;DHT22;10094;48.820;9.226;2023-06-04T04:12:00;14.20;99.90
19864;DHT22;10094;48.820;9.226;2023-06-04T04:18:43;14.30;99.90
19864;DHT22;10094;48.820;9.226;2023-06-04T04:25:26;14.60;99.90
19864;DHT22;10094;48.820;9.226;2023-06-04T04:32:09;14.70;99.90
19864;DHT22;10094;48.820;9.226;2023-06-04T04:38:56;15.10;99.40
19864;DHT22;10094;48.820;9.226;2023-06-04T04:45:47;15.40;99.90
19864;DHT22;10094;48.820;9.226;2023-06-04T04:52:29;15.70;97.70
19864;DHT22;10094;48.820;9.226;2023-06-04T04:59:12;16.00;97.80
19864;DHT22;10094;48.820;9.226;2023-06-04T05:05:55;19.40;91.20
19864;DHT22;10094;48.820;9.226;2023-06-04T05:12:38;21.70;86.70
19864;DHT22;10094;48.820;9.226;2023-06-04T05:19:22;23.60;83.10
19864;DHT22;10094;48.820;9.226;2023-06-04T05:26:06;25.20;77.90
19864;DHT22;10094;48.820;9.226;2023-06-04T05:32:49;23.40;77.00
19864;DHT22;10094;48.820;9.226;2023-06-04T05:39:34;22.80;78.90
19864;DHT22;10094;48.820;9.226;2023-06-04T05:46:24;22.00;79.70
19864;DHT22;10094;48.820;9.226;2023-06-04T05:53:07;23.20;79.80
19864;DHT22;10094;48.820;9.226;2023-06-04T05:59:50;24.50;78.20
19864;DHT22;10094;48.820;9.226;2023-06-04T06:06:34;26.40;74.70
19864;DHT22;10094;48.820;9.226;2023-06-04T06:13:17;28.50;71.60
19864;DHT22;10094;48.820;9.226;2023-06-04T06:20:00;28.20;67.80
19864;DHT22;10094;48.820;9.226;2023-06-04T06:26:42;29.00;64.90
19864;DHT22;10094;48.820;9.226;2023-06-04T06:33:27;28.20;64.40
19864;DHT22;10094;48.820;9.226;2023-06-04T06:40:10;28.40;63.60
19864;DHT22;10094;48.820;9.226;2023-06-04T06:46:53;28.60;63.30
19864;DHT22;10094;48.820;9.226;2023-06-04T06:53:35;28.40;62.50
19864;DHT22;10094;48.820;9.226;2023-06-04T07:00:17;30.30;61.80
19864;DHT22;10094;48.820;9.226;2023-06-04T07:07:00;31.50;61.10
19864;DHT22;10094;48.820;9.226;2023-06-04T07:13:43;30.60;60.20
19864;DHT22;10094;48.820;9.226;2023-06-04T07:20:25;32.10;58.50
19864;DHT22;10094;48.820;9.226;2023-06-04T07:27:14;28.70;60.10
19864;DHT22;10094;48.820;9.226;2023-06-04T07:33:57;30.40;60.40
19864;DHT22;10094;48.820;9.226;2023-06-04T07:40:39;31.30;60.20
19864;DHT22;10094;48.820;9.226;2023-06-04T07:47:22;30.30;58.50
19864;DHT22;10094;48.820;9.226;2023-06-04T07:54:04;31.40;59.60
19864;DHT22;10094;48.820;9.226;2023-06-04T08:00:47;32.00;58.40
19864;DHT22;10094;48.820;9.226;2023-06-04T08:07:29;33.80;56.10
19864;DHT22;10094;48.820;9.226;2023-06-04T08:14:12;31.40;57.60
19864;DHT22;10094;48.820;9.226;2023-06-04T08:20:55;33.00;55.50
19864;DHT22;10094;48.820;9.226;2023-06-04T08:27:53;31.10;58.20
19864;DHT22;10094;48.820;9.226;2023-06-04T08:34:55;32.00;58.40
19864;DHT22;10094;48.820;9.226;2023-06-04T08:41:48;31.90;58.50
19864;DHT22;10094;48.820;9.226;2023-06-04T08:48:31;31.80;58.60
19864;DHT22;10094;48.820;9.226;2023-06-04T08:55:14;32.50;56.90
19864;DHT22;10094;48.820;9.226;2023-06-04T09:01:59;34.40;57.40
19864;DHT22;10094;48.820;9.226;2023-06-04T09:08:43;33.50;54.40
19864;DHT22;10094;48.820;9.226;2023-06-04T09:15:37;31.20;55.30
19864;DHT22;10094;48.820;9.226;2023-06-04T09:22:31;29.60;57.00
19864;DHT22;10094;48.820;9.226;2023-06-04T09:29:14;29.60;57.80
19864;DHT22;10094;48.820;9.226;2023-06-04T09:35:58;30.80;56.80
19864;DHT22;10094;48.820;9.226;2023-06-04T09:42:59;32.10;56.40
19864;DHT22;10094;48.820;9.226;2023-06-04T09:56:24;33.70;54.90
19864;DHT22;10094;48.820;9.226;2023-06-04T10:03:10;34.90;53.90
19864;DHT22;10094;48.820;9.226;2023-06-04T10:09:55;32.90;52.00
19864;DHT22;10094;48.820;9.226;2023-06-04T10:16:39;34.80;52.20
19864;DHT22;10094;48.820;9.226;2023-06-04T10:23:23;35.10;50.20
19864;DHT22;10094;48.820;9.226;2023-06-04T10:30:07;35.10;51.30
19864;DHT22;10094;48.820;9.226;2023-06-04T10:36:49;33.70;50.30
19864;DHT22;10094;48.820;9.226;2023-06-04T10:43:32;31.80;50.90
19864;DHT22;10094;48.820;9.226;2023-06-04T10:50:15;32.90;50.10
19864;DHT22;10094;48.820;9.226;2023-06-04T10:56:58;31.10;51.40
19864;DHT22;10094;48.820;9.226;2023-06-04T11:03:40;28.60;54.30
19864;DHT22;10094;48.820;9.226;2023-06-04T11:10:32;28.80;52.70
19864;DHT22;10094;48.820;9.226;2023-06-04T11:17:15;27.50;53.70
19864;DHT22;10094;48.820;9.226;2023-06-04T11:23:58;27.40;55.40
19864;DHT22;10094;48.820;9.226;2023-06-04T11:30:42;26.90;54.30
19864;DHT22;10094;48.820;9.226;2023-06-04T11:37:24;26.10;55.10
19864;DHT22;10094;48.820;9.226;2023-06-04T11:44:06;25.80;55.20
19864;DHT22;10094;48.820;9.226;2023-06-04T11:50:53;26.20;55.80
19864;DHT22;10094;48.820;9.226;2023-06-04T11:57:37;26.20;55.80
19864;DHT22;10094;48.820;9.226;2023-06-04T12:04:19;25.90;57.00
19864;DHT22;10094;48.820;9.226;2023-06-04T12:11:01;25.90;56.00
19864;DHT22;10094;48.820;9.226;2023-06-04T12:17:51;25.80;56.20
19864;DHT22;10094;48.820;9.226;2023-06-04T12:24:46;26.40;56.50
19864;DHT22;10094;48.820;9.226;2023-06-04T12:31:29;26.80;55.80
19864;DHT22;10094;48.820;9.226;2023-06-04T12:38:14;26.50;54.80
19864;DHT22;10094;48.820;9.226;2023-06-04T12:44:56;26.60;55.00
19864;DHT22;10094;48.820;9.226;2023-06-04T12:51:39;26.30;54.90
19864;DHT22;10094;48.820;9.226;2023-06-04T12:58:21;25.70;55.60
19864;DHT22;10094;48.820;9.226;2023-06-04T13:05:04;25.60;55.10
19864;DHT22;10094;48.820;9.226;2023-06-04T13:11:46;25.60;54.10
19864;DHT22;10094;48.820;9.226;2023-06-04T13:18:29;25.90;54.50
19864;DHT22;10094;48.820;9.226;2023-06-04T13:25:11;26.30;54.90
19864;DHT22;10094;48.820;9.226;2023-06-04T13:31:54;26.00;53.50
19864;DHT22;10094;48.820;9.226;2023-06-04T13:38:36;25.70;54.30
19864;DHT22;10094;48.820;9.226;2023-06-04T13:45:19;25.80;55.50
19864;DHT22;10094;48.820;9.226;2023-06-04T13:52:02;26.20;53.00
19864;DHT22;10094;48.820;9.226;2023-06-04T13:58:45;26.30;53.40
19864;DHT22;10094;48.820;9.226;2023-06-04T14:05:27;26.10;53.60
19864;DHT22;10094;48.820;9.226;2023-06-04T14:12:10;25.70;52.40
19864;DHT22;10094;48.820;9.226;2023-06-04T14:18:52;26.10;52.80
19864;DHT22;10094;48.820;9.226;2023-06-04T14:25:34;26.60;52.00
19864;DHT22;10094;48.820;9.226;2023-06-04T14:32:18;26.00;49.70
19864;DHT22;10094;48.820;9.226;2023-06-04T14:39:01;25.80;50.80
19864;DHT22;10094;48.820;9.226;2023-06-04T14:45:43;26.10;50.90
19864;DHT22;10094;48.820;9.226;2023-06-04T14:52:26;26.20;51.20
19864;DHT22;10094;48.820;9.226;2023-06-04T14:59:10;25.80;50.90
19864;DHT22;10094;48.820;9.226;2023-06-04T15:05:53;26.10;51.70
19864;DHT22;10094;48.820;9.226;2023-06-04T15:12:44;26.20;50.00
19864;DHT22;10094;48.820;9.226;2023-06-04T15:19:27;26.40;51.70
19864;DHT22;10094;48.820;9.226;2023-06-04T15:26:10;26.10;50.80
19864;DHT22;10094;48.820;9.226;2023-06-04T15:32:53;26.30;49.90
19864;DHT22;10094;48.820;9.226;2023-06-04T15:39:36;26.20;50.20
19864;DHT22;10094;48.820;9.226;2023-06-04T15:46:22;26.40;51.30
19864;DHT22;10094;48.820;9.226;2023-06-04T15:53:05;26.50;51.00
19864;DHT22;10094;48.820;9.226;2023-06-04T15:59:47;26.10;51.80
19864;DHT22;10094;48.820;9.226;2023-06-04T16:06:30;25.80;51.20
19864;DHT22;10094;48.820;9.226;2023-06-04T16:13:12;26.10;50.60
19864;DHT22;10094;48.820;9.226;2023-06-04T16:19:55;26.10;50.20
19864;DHT22;10094;48.820;9.226;2023-06-04T16:26:37;26.50;51.50
19864;DHT22;10094;48.820;9.226;2023-06-04T16:33:20;26.20;50.50
19864;DHT22;10094;48.820;9.226;2023-06-04T16:40:02;26.20;51.20
19864;DHT22;10094;48.820;9.226;2023-06-04T16:46:45;26.30;51.60
19864;DHT22;10094;48.820;9.226;2023-06-04T16:53:28;26.20;52.40
19864;DHT22;10094;48.820;9.226;2023-06-04T17:00:12;25.90;53.10
19864;DHT22;10094;48.820;9.226;2023-06-04T17:07:08;25.70;53.10
19864;DHT22;10094;48.820;9.226;2023-06-04T17:13:50;25.80;53.30
19864;DHT22;10094;48.820;9.226;2023-06-04T17:20:33;25.70;53.20
19864;DHT22;10094;48.820;9.226;2023-06-04T17:27:16;25.70;53.30
19864;DHT22;10094;48.820;9.226;2023-06-04T17:33:58;25.60;53.10
19864;DHT22;10094;48.820;9.226;2023-06-04T17:40:41;25.50;53.70
19864;DHT22;10094;48.820;9.226;2023-06-04T17:47:23;25.30;53.50
19864;DHT22;10094;48.820;9.226;2023-06-04T17:54:06;25.10;53.40
19864;DHT22;10094;48.820;9.226;2023-06-04T18:00:50;24.90;53.50
19864;DHT22;10094;48.820;9.226;2023-06-04T18:07:33;24.80;54.20
19864;DHT22;10094;48.820;9.226;2023-06-04T18:14:15;24.90;53.80
19864;DHT22;10094;48.820;9.226;2023-06-04T18:20:58;24.50;53.90
19864;DHT22;10094;48.820;9.226;2023-06-04T18:27:40;24.40;54.20
19864;DHT22;10094;48.820;9.226;2023-06-04T18:34:23;24.20;54.60
19864;DHT22;10094;48.820;9.226;2023-06-04T18:41:06;24.10;54.60
19864;DHT22;10094;48.820;9.226;2023-06-04T18:47:48;23.80;54.30
19864;DHT22;10094;48.820;9.226;2023-06-04T18:54:30;23.60;55.50
19864;DHT22;10094;48.820;9.226;2023-06-04T19:01:13;23.40;55.20
19864;DHT22;10094;48.820;9.226;2023-06-04T19:07:55;23.20;56.50
19864;DHT22;10094;48.820;9.226;2023-06-04T19:14:38;23.10;59.00
19864;DHT22;10094;48.820;9.226;2023-06-04T19:21:20;22.80;60.80
19864;DHT22;10094;48.820;9.226;2023-06-04T19:28:06;22.40;60.50
19864;DHT22;10094;48.820;9.226;2023-06-04T19:34:48;22.10;62.90
19864;DHT22;10094;48.820;9.226;2023-06-04T19:41:31;21.80;64.00
19864;DHT22;10094;48.820;9.226;2023-06-04T19:48:13;21.40;64.00
19864;DHT22;10094;48.820;9.226;2023-06-04T19:54:56;21.10;64.30
19864;DHT22;10094;48.820;9.226;2023-06-04T20:01:39;20.90;65.40
19864;DHT22;10094;48.820;9.226;2023-06-04T20:08:21;20.70;67.00
19864;DHT22;10094;48.820;9.226;2023-06-04T20:15:06;20.50;67.70
19864;DHT22;10094;48.820;9.226;2023-06-04T20:21:48;20.20;67.70
19864;DHT22;10094;48.820;9.226;2023-06-04T20:28:31;20.10;68.40
19864;DHT22;10094;48.820;9.226;2023-06-04T20:35:14;20.00;72.80
19864;DHT22;10094;48.820;9.226;2023-06-04T20:41:57;19.80;70.70
19864;DHT22;10094;48.820;9.226;2023-06-04T20:48:40;19.60;69.90
19864;DHT22;10094;48.820;9.226;2023-06-04T20:55:23;19.40;71.00
19864;DHT22;10094;48.820;9.226;2023-06-04T21:02:05;19.40;69.60
19864;DHT22;10094;48.820;9.226;2023-06-04T21:08:48;19.20;70.20
19864;DHT22;10094;48.820;9.226;2023-06-04T21:15:30;19.00;73.90
19864;DHT22;10094;48.820;9.226;2023-06-04T21:22:13;18.30;82.60
19864;DHT22;10094;48.820;9.226;2023-06-04T21:28:56;18.50;90.70
19864;DHT22;10094;48.820;9.226;2023-06-04T21:35:38;18.30;89.80
19864;DHT22;10094;48.820;9.226;2023-06-04T21:42:21;18.00;90.00
19864;DHT22;10094;48.820;9.226;2023-06-04T21:49:03;17.60;90.50
19864;DHT22;10094;48.820;9.226;2023-06-04T21:55:46;17.90;92.00
19864;DHT22;10094;48.820;9.226;2023-06-04T22:02:28;17.90;93.00
19864;DHT22;10094;48.820;9.226;2023-06-04T22:09:11;17.90;94.20
19864;DHT22;10094;48.820;9.226;2023-06-04T22:15:53;17.70;94.00
19864;DHT22;10094;48.820;9.226;2023-06-04T22:22:36;17.80;93.30
19864;DHT22;10094;48.820;9.226;2023-06-04T22:29:18;17.70;93.40
19864;DHT22;10094;48.820;9.226;2023-06-04T22:36:02;17.40;93.10
19864;DHT22;10094;48.820;9.226;2023-06-04T22:42:44;17.30;95.30
19864;DHT22;10094;48.820;9.226;2023-06-04T22:49:27;18.20;93.70
19864;DHT22;10094;48.820;9.226;2023-06-04T22:56:09;17.80;92.70
19864;DHT22;10094;48.820;9.226;2023-06-04T23:02:52;17.70;92.30
19864;DHT22;10094;48.820;9.226;2023-06-04T23:09:34;17.70;93.60
19864;DHT22;10094;48.820;9.226;2023-06-04T23:16:17;17.50;93.50
19864;DHT22;10094;48.820;9.226;2023-06-04T23:22:59;17.30;94.70
19864;DHT22;10094;48.820;9.226;2023-06-04T23:29:42;17.10;94.10
19864;DHT22;10094;48.820;9.226;2023-06-04T23:36:26;17.00;94.50
19864;DHT22;10094;48.820;9.226;2023-06-04T23:43:09;16.90;97.70
19864;DHT22;10094;48.820;9.226;2023-06-04T23:49:51;16.60;96.50
19864;DHT22;10094;48.820;9.226;2023-06-04T23:56:33;16.40;95.60
